sensor_id;sensor_type;location;lat;lon;timestamp;pressure;altitude;pressure_sealevel;temperature;humidity
13952;BME280;39535;52.192;9.886;2022-10-29T00:00:13;101031.25;;;17.32;85.14
13952;BME280;39535;52.192;9.886;2022-10-29T00:02:40;101041.00;;;17.30;85.13
13952;BME280;39535;52.192;9.886;2022-10-29T00:05:07;101051.47;;;17.33;84.92
13952;BME280;39535;52.192;9.886;2022-10-29T00:07:33;101054.25;;;17.28;85.04
13952;BME280;39535;52.192;9.886;2022-10-29T00:10:01;101065.72;;;17.27;84.87
13952;BME280;39535;52.192;9.886;2022-10-29T00:12:28;101070.22;;;17.25;84.99
13952;BME280;39535;52.192;9.886;2022-10-29T00:14:54;101055.34;;;17.22;85.16
13952;BME280;39535;52.192;9.886;2022-10-29T00:17:20;101052.81;;;17.19;85.34
13952;BME280;39535;52.192;9.886;2022-10-29T00:19:47;101051.88;;;17.20;85.67
13952;BME280;39535;52.192;9.886;2022-10-29T00:22:14;101049.16;;;17.23;85.74
13952;BME280;39535;52.192;9.886;2022-10-29T00:24:40;101075.59;;;17.22;84.60
13952;BME280;39535;52.192;9.886;2022-10-29T00:27:08;101094.09;;;17.20;84.02
13952;BME280;39535;52.192;9.886;2022-10-29T00:29:34;101070.22;;;17.25;85.78
13952;BME280;39535;52.192;9.886;2022-10-29T00:32:01;101055.03;;;17.30;86.02
13952;BME280;39535;52.192;9.886;2022-10-29T00:34:27;101049.78;;;17.30;86.00
13952;BME280;39535;52.192;9.886;2022-10-29T00:36:54;101037.38;;;17.32;86.00
13952;BME280;39535;52.192;9.886;2022-10-29T00:39:20;101032.06;;;17.34;86.00
13952;BME280;39535;52.192;9.886;2022-10-29T00:41:46;101031.28;;;17.30;86.33
13952;BME280;39535;52.192;9.886;2022-10-29T00:44:31;101043.25;;;17.17;85.83
13952;BME280;39535;52.192;9.886;2022-10-29T00:47:16;101072.91;;;17.23;85.16
13952;BME280;39535;52.192;9.886;2022-10-29T00:49:45;101076.28;;;17.27;85.45
13952;BME280;39535;52.192;9.886;2022-10-29T00:52:13;101078.88;;;17.29;85.68
13952;BME280;39535;52.192;9.886;2022-10-29T00:54:41;101073.66;;;17.27;85.57
13952;BME280;39535;52.192;9.886;2022-10-29T00:57:12;101071.91;;;17.26;85.65
13952;BME280;39535;52.192;9.886;2022-10-29T00:59:41;101063.41;;;17.18;85.58
13952;BME280;39535;52.192;9.886;2022-10-29T01:02:09;101062.66;;;17.14;85.90
13952;BME280;39535;52.192;9.886;2022-10-29T01:04:36;101059.50;;;17.04;86.01
13952;BME280;39535;52.192;9.886;2022-10-29T01:07:04;101065.00;;;16.98;85.77
13952;BME280;39535;52.192;9.886;2022-10-29T01:09:31;101064.84;;;17.03;85.81
13952;BME280;39535;52.192;9.886;2022-10-29T01:12:10;101063.03;;;17.05;86.05
13952;BME280;39535;52.192;9.886;2022-10-29T01:14:50;101063.97;;;17.02;86.06
13952;BME280;39535;52.192;9.886;2022-10-29T01:17:26;101051.72;;;17.01;86.36
13952;BME280;39535;52.192;9.886;2022-10-29T01:23:08;101032.00;;;16.86;87.40
13952;BME280;39535;52.192;9.886;2022-10-29T01:25:59;101006.44;;;16.88;88.08
13952;BME280;39535;52.192;9.886;2022-10-29T01:28:37;101005.59;;;16.88;87.92
13952;BME280;39535;52.192;9.886;2022-10-29T01:31:16;101000.31;;;16.88;87.96
13952;BME280;39535;52.192;9.886;2022-10-29T01:33:51;100996.66;;;16.92;87.85
13952;BME280;39535;52.192;9.886;2022-10-29T01:36:26;101009.88;;;16.91;87.83
13952;BME280;39535;52.192;9.886;2022-10-29T01:39:01;100998.47;;;16.90;88.05
13952;BME280;39535;52.192;9.886;2022-10-29T01:41:32;100999.47;;;16.87;88.26
13952;BME280;39535;52.192;9.886;2022-10-29T01:44:09;101004.72;;;16.87;88.30
13952;BME280;39535;52.192;9.886;2022-10-29T01:46:41;101011.72;;;16.88;88.29
13952;BME280;39535;52.192;9.886;2022-10-29T01:49:26;101017.16;;;16.84;88.08
13952;BME280;39535;52.192;9.886;2022-10-29T01:51:54;101030.25;;;16.87;87.71
13952;BME280;39535;52.192;9.886;2022-10-29T01:54:22;101026.72;;;16.86;87.85
13952;BME280;39535;52.192;9.886;2022-10-29T01:56:53;101019.75;;;16.85;88.30
13952;BME280;39535;52.192;9.886;2022-10-29T01:59:19;101027.53;;;16.88;88.08
13952;BME280;39535;52.192;9.886;2022-10-29T02:01:51;101037.19;;;16.90;87.89
13952;BME280;39535;52.192;9.886;2022-10-29T02:04:33;101044.34;;;16.86;87.91
13952;BME280;39535;52.192;9.886;2022-10-29T02:07:06;101041.47;;;16.92;87.90
13952;BME280;39535;52.192;9.886;2022-10-29T02:09:43;101036.34;;;16.89;88.02
13952;BME280;39535;52.192;9.886;2022-10-29T02:12:21;101038.00;;;16.92;88.06
13952;BME280;39535;52.192;9.886;2022-10-29T02:14:51;101038.03;;;16.90;88.07
13952;BME280;39535;52.192;9.886;2022-10-29T02:17:20;101041.53;;;16.91;88.03
13952;BME280;39535;52.192;9.886;2022-10-29T02:19:47;101031.16;;;16.86;88.14
13952;BME280;39535;52.192;9.886;2022-10-29T02:22:13;101035.44;;;16.88;88.04
13952;BME280;39535;52.192;9.886;2022-10-29T02:24:40;101035.53;;;16.87;87.86
13952;BME280;39535;52.192;9.886;2022-10-29T02:27:06;101038.16;;;16.87;87.67
13952;BME280;39535;52.192;9.886;2022-10-29T02:29:33;101051.41;;;16.85;87.71
13952;BME280;39535;52.192;9.886;2022-10-29T02:31:59;101061.00;;;16.86;87.55
13952;BME280;39535;52.192;9.886;2022-10-29T02:34:27;101056.66;;;16.85;87.63
13952;BME280;39535;52.192;9.886;2022-10-29T02:36:53;101064.59;;;16.85;87.55
13952;BME280;39535;52.192;9.886;2022-10-29T02:39:20;101045.28;;;16.85;87.79
13952;BME280;39535;52.192;9.886;2022-10-29T02:41:46;101032.19;;;16.82;87.77
13952;BME280;39535;52.192;9.886;2022-10-29T02:44:13;101024.50;;;16.74;88.51
13952;BME280;39535;52.192;9.886;2022-10-29T02:46:39;101006.06;;;16.74;88.68
13952;BME280;39535;52.192;9.886;2022-10-29T02:49:06;100998.28;;;16.71;88.83
13952;BME280;39535;52.192;9.886;2022-10-29T02:51:34;100998.19;;;16.73;88.56
13952;BME280;39535;52.192;9.886;2022-10-29T02:54:00;101000.81;;;16.73;88.44
13952;BME280;39535;52.192;9.886;2022-10-29T02:56:26;101010.34;;;16.77;88.33
13952;BME280;39535;52.192;9.886;2022-10-29T02:58:53;101016.72;;;16.71;88.32
13952;BME280;39535;52.192;9.886;2022-10-29T03:01:19;101009.94;;;16.64;88.37
13952;BME280;39535;52.192;9.886;2022-10-29T03:03:46;101012.56;;;16.64;88.40
13952;BME280;39535;52.192;9.886;2022-10-29T03:06:13;101020.44;;;16.65;88.25
13952;BME280;39535;52.192;9.886;2022-10-29T03:08:41;101023.19;;;16.61;88.03
13952;BME280;39535;52.192;9.886;2022-10-29T03:11:07;101019.75;;;16.59;87.92
13952;BME280;39535;52.192;9.886;2022-10-29T03:13:34;101017.19;;;16.57;87.83
13952;BME280;39535;52.192;9.886;2022-10-29T03:16:00;101020.72;;;16.56;87.70
13952;BME280;39535;52.192;9.886;2022-10-29T03:18:27;101016.31;;;16.57;87.58
13952;BME280;39535;52.192;9.886;2022-10-29T03:20:53;101024.34;;;16.54;87.53
13952;BME280;39535;52.192;9.886;2022-10-29T03:23:20;101019.13;;;16.52;87.42
13952;BME280;39535;52.192;9.886;2022-10-29T03:25:49;101026.25;;;16.48;87.19
13952;BME280;39535;52.192;9.886;2022-10-29T03:28:17;101023.75;;;16.45;87.33
13952;BME280;39535;52.192;9.886;2022-10-29T03:30:44;101015.97;;;16.41;87.50
13952;BME280;39535;52.192;9.886;2022-10-29T03:33:10;101009.09;;;16.37;87.39
13952;BME280;39535;52.192;9.886;2022-10-29T03:35:36;101004.00;;;16.32;87.73
13952;BME280;39535;52.192;9.886;2022-10-29T03:38:03;101009.34;;;16.29;87.65
13952;BME280;39535;52.192;9.886;2022-10-29T03:40:29;100997.19;;;16.25;88.05
13952;BME280;39535;52.192;9.886;2022-10-29T03:42:57;101001.59;;;16.24;88.04
13952;BME280;39535;52.192;9.886;2022-10-29T03:45:24;101000.03;;;16.19;88.18
13952;BME280;39535;52.192;9.886;2022-10-29T03:47:50;100997.56;;;16.14;88.30
13952;BME280;39535;52.192;9.886;2022-10-29T03:50:17;100995.94;;;16.10;88.64
13952;BME280;39535;52.192;9.886;2022-10-29T03:52:43;100987.03;;;16.14;89.01
13952;BME280;39535;52.192;9.886;2022-10-29T03:55:10;100987.94;;;16.13;88.95
13952;BME280;39535;52.192;9.886;2022-10-29T03:57:36;100985.41;;;16.10;89.50
13952;BME280;39535;52.192;9.886;2022-10-29T04:00:05;100978.31;;;16.12;89.60
13952;BME280;39535;52.192;9.886;2022-10-29T04:02:32;100963.50;;;16.10;89.67
13952;BME280;39535;52.192;9.886;2022-10-29T04:04:58;100964.31;;;16.12;89.71
13952;BME280;39535;52.192;9.886;2022-10-29T04:07:24;100953.00;;;16.08;90.03
13952;BME280;39535;52.192;9.886;2022-10-29T04:09:51;100952.16;;;16.07;90.15
13952;BME280;39535;52.192;9.886;2022-10-29T04:12:17;100954.81;;;16.06;90.34
13952;BME280;39535;52.192;9.886;2022-10-29T04:14:44;100957.56;;;16.03;90.29
13952;BME280;39535;52.192;9.886;2022-10-29T04:17:12;100960.94;;;16.06;90.33
13952;BME280;39535;52.192;9.886;2022-10-29T04:19:38;100956.66;;;16.04;90.74
13952;BME280;39535;52.192;9.886;2022-10-29T04:22:05;100966.16;;;16.08;90.65
13952;BME280;39535;52.192;9.886;2022-10-29T04:24:32;100953.03;;;16.06;90.87
13952;BME280;39535;52.192;9.886;2022-10-29T04:26:58;100951.34;;;16.05;91.15
13952;BME280;39535;52.192;9.886;2022-10-29T04:29:25;100927.53;;;16.08;91.53
13952;BME280;39535;52.192;9.886;2022-10-29T04:31:51;100926.66;;;16.08;91.59
13952;BME280;39535;52.192;9.886;2022-10-29T04:34:19;100928.44;;;16.07;91.83
13952;BME280;39535;52.192;9.886;2022-10-29T04:36:45;100932.69;;;16.12;91.71
13952;BME280;39535;52.192;9.886;2022-10-29T04:39:12;100927.56;;;16.07;92.02
13952;BME280;39535;52.192;9.886;2022-10-29T04:41:38;100924.94;;;16.07;92.07
13952;BME280;39535;52.192;9.886;2022-10-29T04:44:05;100932.84;;;16.07;92.07
13952;BME280;39535;52.192;9.886;2022-10-29T04:46:31;100932.69;;;16.12;91.84
13952;BME280;39535;52.192;9.886;2022-10-29T04:48:58;100923.00;;;16.12;92.42
13952;BME280;39535;52.192;9.886;2022-10-29T04:51:26;100927.31;;;16.15;92.21
13952;BME280;39535;52.192;9.886;2022-10-29T04:53:52;100928.16;;;16.15;92.14
13952;BME280;39535;52.192;9.886;2022-10-29T04:56:19;100917.75;;;16.12;92.55
13952;BME280;39535;52.192;9.886;2022-10-29T04:58:45;100925.59;;;16.14;92.26
13952;BME280;39535;52.192;9.886;2022-10-29T05:01:12;100924.00;;;16.10;92.45
13952;BME280;39535;52.192;9.886;2022-10-29T05:03:38;100919.63;;;16.08;92.64
13952;BME280;39535;52.192;9.886;2022-10-29T05:06:05;100910.88;;;16.08;92.62
13952;BME280;39535;52.192;9.886;2022-10-29T05:08:33;100908.38;;;16.03;93.33
13952;BME280;39535;52.192;9.886;2022-10-29T05:11:01;100909.25;;;16.04;93.38
13952;BME280;39535;52.192;9.886;2022-10-29T05:13:28;100911.13;;;16.00;93.56
13952;BME280;39535;52.192;9.886;2022-10-29T05:15:55;100914.53;;;16.04;93.02
13952;BME280;39535;52.192;9.886;2022-10-29T05:18:21;100921.50;;;16.05;93.07
13952;BME280;39535;52.192;9.886;2022-10-29T05:20:51;100923.22;;;16.06;93.05
13952;BME280;39535;52.192;9.886;2022-10-29T05:23:18;100924.94;;;16.07;92.91
13952;BME280;39535;52.192;9.886;2022-10-29T05:25:46;100930.09;;;16.10;92.63
13952;BME280;39535;52.192;9.886;2022-10-29T05:28:15;100934.56;;;16.08;92.73
13952;BME280;39535;52.192;9.886;2022-10-29T05:30:43;100931.94;;;16.08;92.78
13952;BME280;39535;52.192;9.886;2022-10-29T05:33:11;100928.44;;;16.07;92.49
13952;BME280;39535;52.192;9.886;2022-10-29T05:35:39;100935.47;;;16.07;91.83
13952;BME280;39535;52.192;9.886;2022-10-29T05:38:08;100940.94;;;16.01;92.78
13952;BME280;39535;52.192;9.886;2022-10-29T05:40:35;100926.97;;;15.99;93.18
13952;BME280;39535;52.192;9.886;2022-10-29T05:43:02;100912.16;;;15.96;93.99
13952;BME280;39535;52.192;9.886;2022-10-29T05:45:29;100916.44;;;15.99;93.89
13952;BME280;39535;52.192;9.886;2022-10-29T05:47:56;100919.78;;;16.04;93.80
13952;BME280;39535;52.192;9.886;2022-10-29T05:50:23;100921.50;;;16.05;93.57
13952;BME280;39535;52.192;9.886;2022-10-29T05:52:54;100924.06;;;16.06;93.73
13952;BME280;39535;52.192;9.886;2022-10-29T05:55:21;100932.69;;;16.12;93.38
13952;BME280;39535;52.192;9.886;2022-10-29T05:57:47;100936.00;;;16.17;93.15
13952;BME280;39535;52.192;9.886;2022-10-29T06:00:15;100939.47;;;16.19;92.85
13952;BME280;39535;52.192;9.886;2022-10-29T06:02:42;100953.38;;;16.22;92.49
13952;BME280;39535;52.192;9.886;2022-10-29T06:05:08;100963.88;;;16.24;92.17
13952;BME280;39535;52.192;9.886;2022-10-29T06:07:35;100982.28;;;16.25;91.96
13952;BME280;39535;52.192;9.886;2022-10-29T06:10:01;100991.94;;;16.25;91.87
13952;BME280;39535;52.192;9.886;2022-10-29T06:12:30;100988.47;;;16.23;91.99
13952;BME280;39535;52.192;9.886;2022-10-29T06:14:57;100986.91;;;16.17;92.57
13952;BME280;39535;52.192;9.886;2022-10-29T06:17:24;100970.50;;;16.09;93.14
13952;BME280;39535;52.192;9.886;2022-10-29T06:19:51;100960.91;;;16.08;93.40
13952;BME280;39535;52.192;9.886;2022-10-29T06:22:17;100955.47;;;16.13;93.18
13952;BME280;39535;52.192;9.886;2022-10-29T06:24:44;100949.34;;;16.12;93.30
13952;BME280;39535;52.192;9.886;2022-10-29T06:27:10;100951.19;;;16.10;93.42
13952;BME280;39535;52.192;9.886;2022-10-29T06:29:37;100945.91;;;16.10;93.64
13952;BME280;39535;52.192;9.886;2022-10-29T06:32:03;100950.19;;;16.13;93.45
13952;BME280;39535;52.192;9.886;2022-10-29T06:34:31;100936.19;;;16.12;93.67
13952;BME280;39535;52.192;9.886;2022-10-29T06:36:57;100939.66;;;16.13;93.82
13952;BME280;39535;52.192;9.886;2022-10-29T06:39:24;100938.06;;;16.08;93.91
13952;BME280;39535;52.192;9.886;2022-10-29T06:41:50;100932.63;;;16.13;93.99
13952;BME280;39535;52.192;9.886;2022-10-29T06:44:17;100937.84;;;16.15;93.95
13952;BME280;39535;52.192;9.886;2022-10-29T06:46:43;100948.28;;;16.18;93.54
13952;BME280;39535;52.192;9.886;2022-10-29T06:49:10;100966.50;;;16.24;92.63
13952;BME280;39535;52.192;9.886;2022-10-29T06:51:37;100972.63;;;16.24;93.10
13952;BME280;39535;52.192;9.886;2022-10-29T06:54:04;100960.56;;;16.17;93.90
13952;BME280;39535;52.192;9.886;2022-10-29T06:56:30;100951.78;;;16.18;94.10
13952;BME280;39535;52.192;9.886;2022-10-29T06:58:58;100935.88;;;16.21;94.25
13952;BME280;39535;52.192;9.886;2022-10-29T07:01:24;100939.25;;;16.25;94.09
13952;BME280;39535;52.192;9.886;2022-10-29T07:03:53;100936.53;;;16.28;93.70
13952;BME280;39535;52.192;9.886;2022-10-29T07:06:19;100942.53;;;16.32;93.96
13952;BME280;39535;52.192;9.886;2022-10-29T07:08:47;100946.00;;;16.34;93.93
13952;BME280;39535;52.192;9.886;2022-10-29T07:11:14;100950.38;;;16.33;93.68
13952;BME280;39535;52.192;9.886;2022-10-29T07:13:40;100953.75;;;16.37;93.74
13952;BME280;39535;52.192;9.886;2022-10-29T07:16:07;100949.38;;;16.37;93.90
13952;BME280;39535;52.192;9.886;2022-10-29T07:18:33;100951.88;;;16.40;93.60
13952;BME280;39535;52.192;9.886;2022-10-29T07:21:01;100967.66;;;16.42;93.48
13952;BME280;39535;52.192;9.886;2022-10-29T07:23:28;100957.28;;;16.37;93.96
13952;BME280;39535;52.192;9.886;2022-10-29T07:25:56;100959.75;;;16.42;94.26
13952;BME280;39535;52.192;9.886;2022-10-29T07:28:22;100965.03;;;16.42;94.17
13952;BME280;39535;52.192;9.886;2022-10-29T07:30:50;100964.00;;;16.46;94.30
13952;BME280;39535;52.192;9.886;2022-10-29T07:33:17;100961.25;;;16.49;94.32
13952;BME280;39535;52.192;9.886;2022-10-29T07:35:45;100962.88;;;16.53;94.21
13952;BME280;39535;52.192;9.886;2022-10-29T07:38:12;100972.44;;;16.56;94.00
13952;BME280;39535;52.192;9.886;2022-10-29T07:40:42;100968.06;;;16.55;94.06
13952;BME280;39535;52.192;9.886;2022-10-29T07:43:12;100977.53;;;16.60;93.71
13952;BME280;39535;52.192;9.886;2022-10-29T07:45:39;100974.91;;;16.60;93.99
13952;BME280;39535;52.192;9.886;2022-10-29T07:48:08;100978.31;;;16.64;93.81
13952;BME280;39535;52.192;9.886;2022-10-29T07:50:35;100983.47;;;16.67;93.56
13952;BME280;39535;52.192;9.886;2022-10-29T07:53:03;100987.00;;;16.66;93.57
13952;BME280;39535;52.192;9.886;2022-10-29T07:55:30;100983.56;;;16.64;93.65
13952;BME280;39535;52.192;9.886;2022-10-29T07:57:57;100980.84;;;16.67;93.58
13952;BME280;39535;52.192;9.886;2022-10-29T08:00:27;100995.78;;;16.66;93.63
13952;BME280;39535;52.192;9.886;2022-10-29T08:02:54;100992.53;;;16.58;94.03
13952;BME280;39535;52.192;9.886;2022-10-29T08:05:21;100982.84;;;16.59;93.79
13952;BME280;39535;52.192;9.886;2022-10-29T08:07:47;100982.72;;;16.63;93.71
13952;BME280;39535;52.192;9.886;2022-10-29T08:10:14;100972.53;;;16.78;94.52
13952;BME280;39535;52.192;9.886;2022-10-29T08:12:47;100958.94;;;16.90;94.62
13952;BME280;39535;52.192;9.886;2022-10-29T08:15:14;100955.16;;;16.97;94.69
13952;BME280;39535;52.192;9.886;2022-10-29T08:17:42;100962.09;;;17.00;94.28
13952;BME280;39535;52.192;9.886;2022-10-29T08:20:09;100978.63;;;17.05;93.55
13952;BME280;39535;52.192;9.886;2022-10-29T08:22:35;100983.41;;;17.17;94.33
13952;BME280;39535;52.192;9.886;2022-10-29T08:25:02;100977.09;;;17.21;94.54
13952;BME280;39535;52.192;9.886;2022-10-29T08:27:28;100948.41;;;17.36;95.90
13952;BME280;39535;52.192;9.886;2022-10-29T08:29:55;100960.41;;;17.44;95.30
13952;BME280;39535;52.192;9.886;2022-10-29T08:32:21;100986.94;;;17.40;94.48
13952;BME280;39535;52.192;9.886;2022-10-29T08:34:49;100985.81;;;17.47;94.11
13952;BME280;39535;52.192;9.886;2022-10-29T08:37:16;100970.53;;;17.55;94.93
13952;BME280;39535;52.192;9.886;2022-10-29T08:39:42;100976.41;;;17.62;94.28
13952;BME280;39535;52.192;9.886;2022-10-29T08:42:20;100985.06;;;17.65;94.28
13952;BME280;39535;52.192;9.886;2022-10-29T08:45:00;100985.75;;;17.71;93.68
13952;BME280;39535;52.192;9.886;2022-10-29T08:47:35;100991.94;;;17.70;93.50
13952;BME280;39535;52.192;9.886;2022-10-29T08:50:15;100997.22;;;17.70;92.92
13952;BME280;39535;52.192;9.886;2022-10-29T08:52:45;101019.41;;;17.65;91.73
13952;BME280;39535;52.192;9.886;2022-10-29T08:55:15;101049.72;;;17.55;90.36
13952;BME280;39535;52.192;9.886;2022-10-29T08:57:52;101034.81;;;17.54;91.71
13952;BME280;39535;52.192;9.886;2022-10-29T09:00:25;101007.63;;;17.52;92.42
13952;BME280;39535;52.192;9.886;2022-10-29T09:02:57;100977.75;;;17.50;92.90
13952;BME280;39535;52.192;9.886;2022-10-29T09:05:29;100975.19;;;17.49;92.82
13952;BME280;39535;52.192;9.886;2022-10-29T09:08:22;100976.66;;;17.56;93.12
13952;BME280;39535;52.192;9.886;2022-10-29T09:10:52;100994.78;;;17.65;91.94
13952;BME280;39535;52.192;9.886;2022-10-29T09:13:30;101035.88;;;17.72;90.47
13952;BME280;39535;52.192;9.886;2022-10-29T09:16:24;101060.91;;;17.85;89.73
13952;BME280;39535;52.192;9.886;2022-10-29T09:19:18;101046.72;;;17.88;90.31
13952;BME280;39535;52.192;9.886;2022-10-29T09:21:55;101046.47;;;17.94;90.94
13952;BME280;39535;52.192;9.886;2022-10-29T09:24:28;101024.31;;;17.98;91.83
13952;BME280;39535;52.192;9.886;2022-10-29T09:27:02;101009.75;;;18.10;91.46
13952;BME280;39535;52.192;9.886;2022-10-29T09:29:55;100969.00;;;18.16;93.69
13952;BME280;39535;52.192;9.886;2022-10-29T09:32:28;100960.88;;;18.20;93.58
13952;BME280;39535;52.192;9.886;2022-10-29T09:34:59;100971.69;;;18.14;93.64
13952;BME280;39535;52.192;9.886;2022-10-29T09:37:35;100981.16;;;18.20;92.80
13952;BME280;39535;52.192;9.886;2022-10-29T09:40:05;101089.75;;;18.14;87.84
13952;BME280;39535;52.192;9.886;2022-10-29T09:42:41;101148.47;;;18.20;87.09
13952;BME280;39535;52.192;9.886;2022-10-29T09:45:14;101138.16;;;18.36;87.17
13952;BME280;39535;52.192;9.886;2022-10-29T09:47:47;101113.31;;;18.40;88.82
13952;BME280;39535;52.192;9.886;2022-10-29T09:50:24;101084.19;;;18.42;89.00
13952;BME280;39535;52.192;9.886;2022-10-29T09:52:54;101098.41;;;18.39;88.02
13952;BME280;39535;52.192;9.886;2022-10-29T09:55:23;101071.72;;;18.45;88.80
13952;BME280;39535;52.192;9.886;2022-10-29T09:57:51;101087.47;;;18.47;88.18
13952;BME280;39535;52.192;9.886;2022-10-29T10:00:21;101100.69;;;18.47;87.19
13952;BME280;39535;52.192;9.886;2022-10-29T10:02:51;101130.78;;;18.44;87.06
13952;BME280;39535;52.192;9.886;2022-10-29T10:05:24;101150.03;;;18.48;86.30
13952;BME280;39535;52.192;9.886;2022-10-29T10:08:09;101156.22;;;18.47;86.32
13952;BME280;39535;52.192;9.886;2022-10-29T10:10:48;101187.16;;;18.45;85.13
13952;BME280;39535;52.192;9.886;2022-10-29T10:13:15;101186.28;;;18.44;84.90
13952;BME280;39535;52.192;9.886;2022-10-29T10:15:48;101169.56;;;18.44;85.37
13952;BME280;39535;52.192;9.886;2022-10-29T10:18:18;101209.91;;;18.49;83.41
13952;BME280;39535;52.192;9.886;2022-10-29T10:20:46;101227.38;;;18.53;82.24
13952;BME280;39535;52.192;9.886;2022-10-29T10:23:22;101252.28;;;18.48;81.87
13952;BME280;39535;52.192;9.886;2022-10-29T10:25:50;101268.19;;;18.46;81.56
13952;BME280;39535;52.192;9.886;2022-10-29T10:28:19;101270.13;;;18.41;81.11
13952;BME280;39535;52.192;9.886;2022-10-29T10:31:05;101284.09;;;18.44;80.64
13952;BME280;39535;52.192;9.886;2022-10-29T10:33:33;101258.47;;;18.46;81.49
13952;BME280;39535;52.192;9.886;2022-10-29T10:36:01;101249.50;;;18.51;81.39
13952;BME280;39535;52.192;9.886;2022-10-29T10:38:38;101238.88;;;18.52;81.13
13952;BME280;39535;52.192;9.886;2022-10-29T10:41:06;101253.00;;;18.51;80.56
13952;BME280;39535;52.192;9.886;2022-10-29T10:43:34;101240.47;;;18.56;81.12
13952;BME280;39535;52.192;9.886;2022-10-29T10:48:29;101217.28;;;18.63;81.37
13952;BME280;39535;52.192;9.886;2022-10-29T10:51:19;101236.38;;;18.71;80.00
13952;BME280;39535;52.192;9.886;2022-10-29T10:53:50;101228.09;;;18.79;80.00
13952;BME280;39535;52.192;9.886;2022-10-29T10:56:19;101226.72;;;18.92;79.51
13952;BME280;39535;52.192;9.886;2022-10-29T10:58:52;101253.81;;;18.99;79.09
13952;BME280;39535;52.192;9.886;2022-10-29T11:01:25;101255.41;;;19.03;78.88
13952;BME280;39535;52.192;9.886;2022-10-29T11:04:01;101253.34;;;19.10;78.71
13952;BME280;39535;52.192;9.886;2022-10-29T11:06:32;101239.41;;;19.27;79.45
13952;BME280;39535;52.192;9.886;2022-10-29T11:09:06;101265.75;;;19.30;77.70
13952;BME280;39535;52.192;9.886;2022-10-29T11:11:38;101265.09;;;19.45;78.09
13952;BME280;39535;52.192;9.886;2022-10-29T11:14:10;101230.81;;;19.62;79.33
13952;BME280;39535;52.192;9.886;2022-10-29T11:16:42;101208.56;;;19.67;79.21
13952;BME280;39535;52.192;9.886;2022-10-29T11:19:17;101265.59;;;19.75;77.31
13952;BME280;39535;52.192;9.886;2022-10-29T11:21:56;101255.72;;;19.79;77.87
13952;BME280;39535;52.192;9.886;2022-10-29T11:24:32;101234.19;;;19.87;78.35
13952;BME280;39535;52.192;9.886;2022-10-29T11:27:06;101238.34;;;19.92;78.44
13952;BME280;39535;52.192;9.886;2022-10-29T11:29:41;101222.72;;;20.05;78.44
13952;BME280;39535;52.192;9.886;2022-10-29T11:32:18;101235.69;;;20.11;77.72
13952;BME280;39535;52.192;9.886;2022-10-29T11:34:50;101237.00;;;20.21;77.74
13952;BME280;39535;52.192;9.886;2022-10-29T11:37:23;101259.59;;;20.30;76.24
13952;BME280;39535;52.192;9.886;2022-10-29T11:39:58;101300.09;;;20.34;74.40
13952;BME280;39535;52.192;9.886;2022-10-29T11:42:25;101304.75;;;20.48;75.64
13952;BME280;39535;52.192;9.886;2022-10-29T11:44:51;101295.56;;;20.36;76.40
13952;BME280;39535;52.192;9.886;2022-10-29T11:47:27;101249.25;;;20.43;76.92
13952;BME280;39535;52.192;9.886;2022-10-29T11:50:05;101277.06;;;20.34;76.26
13952;BME280;39535;52.192;9.886;2022-10-29T11:52:39;101308.81;;;20.36;73.10
13952;BME280;39535;52.192;9.886;2022-10-29T11:55:19;101344.72;;;20.43;74.27
13952;BME280;39535;52.192;9.886;2022-10-29T11:57:51;101382.53;;;20.28;72.30
13952;BME280;39535;52.192;9.886;2022-10-29T12:00:21;101378.41;;;20.41;73.37
13952;BME280;39535;52.192;9.886;2022-10-29T12:03:02;101408.03;;;20.51;71.69
13952;BME280;39535;52.192;9.886;2022-10-29T12:05:37;101357.88;;;20.65;73.30
13952;BME280;39535;52.192;9.886;2022-10-29T12:08:19;101466.28;;;20.54;69.74
13952;BME280;39535;52.192;9.886;2022-10-29T12:10:53;101423.66;;;20.96;71.12
13952;BME280;39535;52.192;9.886;2022-10-29T12:13:32;101517.97;;;21.24;65.79
13952;BME280;39535;52.192;9.886;2022-10-29T12:16:13;101605.09;;;21.93;63.61
13952;BME280;39535;52.192;9.886;2022-10-29T12:18:46;101686.78;;;22.28;62.56
13952;BME280;39535;52.192;9.886;2022-10-29T12:21:23;101736.16;;;21.95;61.81
13952;BME280;39535;52.192;9.886;2022-10-29T12:24:03;101722.34;;;21.87;62.44
13952;BME280;39535;52.192;9.886;2022-10-29T12:26:39;101682.47;;;21.87;62.57
13952;BME280;39535;52.192;9.886;2022-10-29T12:29:12;101676.88;;;21.74;63.44
13952;BME280;39535;52.192;9.886;2022-10-29T12:31:46;101635.94;;;21.39;63.68
13952;BME280;39535;52.192;9.886;2022-10-29T12:34:22;101575.13;;;21.33;65.38
13952;BME280;39535;52.192;9.886;2022-10-29T12:36:55;101537.56;;;21.21;65.59
13952;BME280;39535;52.192;9.886;2022-10-29T12:39:28;101509.16;;;21.23;64.93
13952;BME280;39535;52.192;9.886;2022-10-29T12:42:00;101501.56;;;21.35;65.52
13952;BME280;39535;52.192;9.886;2022-10-29T12:44:35;101469.56;;;21.36;65.46
13952;BME280;39535;52.192;9.886;2022-10-29T12:47:07;101475.41;;;21.26;64.80
13952;BME280;39535;52.192;9.886;2022-10-29T12:49:46;101484.69;;;21.17;65.73
13952;BME280;39535;52.192;9.886;2022-10-29T12:52:18;101438.94;;;21.10;66.47
13952;BME280;39535;52.192;9.886;2022-10-29T12:54:49;101427.13;;;20.98;66.98
13952;BME280;39535;52.192;9.886;2022-10-29T12:57:28;101415.28;;;20.87;66.87
13952;BME280;39535;52.192;9.886;2022-10-29T12:59:55;101393.06;;;20.89;66.63
13952;BME280;39535;52.192;9.886;2022-10-29T13:02:27;101398.44;;;20.88;67.33
13952;BME280;39535;52.192;9.886;2022-10-29T13:05:15;101401.38;;;20.81;66.49
13952;BME280;39535;52.192;9.886;2022-10-29T13:08:07;101388.09;;;20.81;67.33
13952;BME280;39535;52.192;9.886;2022-10-29T13:10:54;101388.22;;;20.78;66.63